createdAt,value
2018-12-29T00:01:40.951Z,2.50
2018-12-29T00:04:07.907Z,2.50
2018-12-29T00:06:34.610Z,2.50
2018-12-29T00:09:01.087Z,2.50
2018-12-29T00:11:27.782Z,2.50
2018-12-29T00:13:54.328Z,2.40
2018-12-29T00:16:21.047Z,2.40
2018-12-29T00:18:47.748Z,2.30
2018-12-29T00:21:14.713Z,2.30
2018-12-29T00:23:41.167Z,2.30
2018-12-29T00:26:07.718Z,2.30
2018-12-29T00:28:34.471Z,2.30
2018-12-29T00:31:00.952Z,2.20
2018-12-29T00:33:27.628Z,2.20
2018-12-29T00:35:54.112Z,2.20
2018-12-29T00:38:20.812Z,2.20
2018-12-29T00:40:47.295Z,2.20
2018-12-29T00:43:14.004Z,2.20
2018-12-29T00:45:40.481Z,2.20
2018-12-29T00:48:07.181Z,2.20
2018-12-29T00:50:33.656Z,2.20
2018-12-29T00:53:00.812Z,2.20
2018-12-29T00:55:27.296Z,2.10
2018-12-29T00:57:53.992Z,2.10
2018-12-29T01:00:20.703Z,2.10
2018-12-29T01:02:47.403Z,2.10
2018-12-29T01:05:14.136Z,2.10
2018-12-29T01:07:40.588Z,2.10
2018-12-29T01:10:07.328Z,2.00
2018-12-29T01:12:33.775Z,2.00
2018-12-29T01:15:00.535Z,2.00
2018-12-29T01:17:27.621Z,2.00
2018-12-29T01:19:54.456Z,2.00
2018-12-29T01:22:21.156Z,2.00
2018-12-29T01:24:47.856Z,2.00
2018-12-29T01:27:14.612Z,2.00
2018-12-29T01:29:41.064Z,2.00
2018-12-29T01:32:08.019Z,2.00
2018-12-29T01:34:34.704Z,2.00
2018-12-29T01:37:01.258Z,2.00
2018-12-29T01:39:28.196Z,2.00
2018-12-29T01:41:54.908Z,2.00
2018-12-29T01:44:21.355Z,2.00
2018-12-29T01:46:47.831Z,2.00
2018-12-29T01:49:14.523Z,2.00
2018-12-29T01:51:41.256Z,2.00
2018-12-29T01:54:07.936Z,2.00
2018-12-29T01:56:34.872Z,2.00
2018-12-29T01:59:01.817Z,2.00
2018-12-29T02:01:28.752Z,2.00
2018-12-29T02:03:55.436Z,2.00
2018-12-29T02:06:21.918Z,2.00
2018-12-29T02:08:48.621Z,2.00
2018-12-29T02:11:15.325Z,2.00
2018-12-29T02:13:42.255Z,2.00
2018-12-29T02:16:09.216Z,2.00
2018-12-29T02:18:36.148Z,2.00
2018-12-29T02:21:02.623Z,2.00
2018-12-29T02:23:29.324Z,2.00
2018-12-29T02:25:55.804Z,2.00
2018-12-29T02:28:23.012Z,2.00
2018-12-29T02:30:50.059Z,2.00
2018-12-29T02:33:16.838Z,2.00
2018-12-29T02:35:44.016Z,2.00
2018-12-29T02:38:10.467Z,1.90
2018-12-29T02:40:37.401Z,2.00
2018-12-29T02:43:04.451Z,2.00
2018-12-29T02:45:33.431Z,2.00
2018-12-29T02:48:00.229Z,1.90
2018-12-29T02:50:26.908Z,1.90
2018-12-29T02:52:53.864Z,1.90
2018-12-29T02:55:20.317Z,1.90
2018-12-29T02:57:47.276Z,1.90
2018-12-29T03:00:14.207Z,1.90
2018-12-29T03:02:41.616Z,1.90
2018-12-29T03:05:08.316Z,1.90
2018-12-29T03:07:34.793Z,1.90
2018-12-29T03:10:01.732Z,1.90
2018-12-29T03:12:28.305Z,1.90
2018-12-29T03:14:55.461Z,1.90
2018-12-29T03:17:21.939Z,1.90
2018-12-29T03:19:48.639Z,1.90
2018-12-29T03:22:15.349Z,1.90
2018-12-29T03:24:42.027Z,1.90
2018-12-29T03:27:08.744Z,1.90
2018-12-29T03:29:35.227Z,1.90
2018-12-29T03:32:01.703Z,1.90
2018-12-29T03:34:28.623Z,1.90
2018-12-29T03:36:55.108Z,2.00
2018-12-29T03:39:21.565Z,1.90
2018-12-29T03:41:48.291Z,2.00
2018-12-29T03:44:14.740Z,2.00
2018-12-29T03:46:41.424Z,2.00
2018-12-29T03:49:08.111Z,2.00
2018-12-29T03:51:34.657Z,2.00
2018-12-29T03:54:01.371Z,2.00
2018-12-29T03:56:27.816Z,2.00
2018-12-29T03:58:54.520Z,2.00
2018-12-29T04:01:20.963Z,2.00
2018-12-29T04:03:47.688Z,2.00
2018-12-29T04:06:14.138Z,2.00
2018-12-29T04:09:00.552Z,2.00
2018-12-29T04:11:27.004Z,2.00
2018-12-29T04:13:53.488Z,2.00
2018-12-29T04:16:20.193Z,2.00
2018-12-29T04:18:46.672Z,2.00
2018-12-29T04:21:13.116Z,2.00
2018-12-29T04:23:39.596Z,2.00
2018-12-29T04:26:06.295Z,2.00
2018-12-29T04:28:33.052Z,2.00
2018-12-29T04:31:00.203Z,2.00
2018-12-29T04:33:26.680Z,2.00
2018-12-29T04:35:53.912Z,2.00
2018-12-29T04:38:20.696Z,2.00
2018-12-29T04:40:47.170Z,2.00
2018-12-29T04:43:13.904Z,2.00
2018-12-29T04:45:40.583Z,2.00
2018-12-29T04:48:07.069Z,2.00
2018-12-29T04:50:33.564Z,2.00
2018-12-29T04:53:00.729Z,2.00
2018-12-29T04:55:27.281Z,2.00
2018-12-29T04:57:53.964Z,2.00
2018-12-29T05:00:20.448Z,2.00
2018-12-29T05:02:47.240Z,2.00
2018-12-29T05:05:14.207Z,2.00
2018-12-29T05:07:41.149Z,2.00
2018-12-29T05:10:07.627Z,2.10
2018-12-29T05:12:34.076Z,2.10
2018-12-29T05:15:01.036Z,2.10
2018-12-29T05:17:27.716Z,2.10
2018-12-29T05:19:54.462Z,2.10
2018-12-29T05:22:21.388Z,2.10
2018-12-29T05:24:48.344Z,2.10
2018-12-29T05:27:15.035Z,2.10
2018-12-29T05:29:41.779Z,2.10
2018-12-29T05:32:08.712Z,2.10
2018-12-29T05:34:35.191Z,2.10
2018-12-29T05:37:01.708Z,2.10
2018-12-29T05:39:28.224Z,2.10
2018-12-29T05:41:54.751Z,2.10
2018-12-29T05:44:21.473Z,2.10
2018-12-29T05:46:48.145Z,2.10
2018-12-29T05:49:15.332Z,2.20
2018-12-29T05:51:42.013Z,2.20
2018-12-29T05:54:08.752Z,2.20
2018-12-29T05:56:35.206Z,2.20
2018-12-29T05:59:01.655Z,2.20
2018-12-29T06:01:28.608Z,2.20
2018-12-29T06:03:55.307Z,2.20
2018-12-29T06:06:21.783Z,2.20
2018-12-29T06:08:48.707Z,2.20
2018-12-29T06:11:15.407Z,2.20
2018-12-29T06:13:41.868Z,2.20
2018-12-29T06:16:08.345Z,2.20
2018-12-29T06:18:34.791Z,2.20
2018-12-29T06:21:01.369Z,2.20
2018-12-29T06:23:28.096Z,2.20
2018-12-29T06:25:54.797Z,2.20
2018-12-29T06:28:21.308Z,2.20
2018-12-29T06:30:48.240Z,2.20
2018-12-29T06:33:15.237Z,2.20
2018-12-29T06:35:41.940Z,2.20
2018-12-29T06:38:08.652Z,2.20
2018-12-29T06:40:35.580Z,2.20
2018-12-29T06:43:02.303Z,2.20
2018-12-29T06:45:29.228Z,2.20
2018-12-29T06:47:55.944Z,2.20
2018-12-29T06:50:22.397Z,2.20
2018-12-29T06:52:49.111Z,2.20
2018-12-29T06:55:15.788Z,2.10
2018-12-29T06:57:42.527Z,2.20
2018-12-29T07:00:09.220Z,2.20
2018-12-29T07:02:35.703Z,2.20
2018-12-29T07:05:02.405Z,2.10
2018-12-29T07:07:28.884Z,2.10
2018-12-29T07:09:55.340Z,2.10
2018-12-29T07:12:21.795Z,2.10
2018-12-29T07:14:48.756Z,2.10
2018-12-29T07:17:15.240Z,2.10
2018-12-29T07:19:41.949Z,2.10
2018-12-29T07:22:08.644Z,2.10
2018-12-29T07:24:35.596Z,2.10
2018-12-29T07:27:02.047Z,2.10
2018-12-29T07:29:28.813Z,2.10
2018-12-29T07:31:55.512Z,2.10
2018-12-29T07:34:22.221Z,2.10
2018-12-29T07:36:48.908Z,2.10
2018-12-29T07:39:15.477Z,2.10
2018-12-29T07:41:42.355Z,2.10
2018-12-29T07:44:09.064Z,2.10
2018-12-29T07:46:35.774Z,2.10
2018-12-29T07:49:02.576Z,2.10
2018-12-29T07:51:29.029Z,2.10
2018-12-29T07:53:55.792Z,2.20
2018-12-29T07:56:22.243Z,2.20
2018-12-29T07:58:48.976Z,2.20
2018-12-29T08:01:15.652Z,2.20
2018-12-29T08:03:42.853Z,2.20
2018-12-29T08:06:09.395Z,2.20
2018-12-29T08:08:35.880Z,2.20
2018-12-29T08:11:02.331Z,2.20
2018-12-29T08:13:29.056Z,2.20
2018-12-29T08:15:55.988Z,2.20
2018-12-29T08:18:22.704Z,2.40
2018-12-29T08:20:49.380Z,2.40
2018-12-29T08:23:16.112Z,2.40
2018-12-29T08:25:42.559Z,2.50
2018-12-29T08:28:09.545Z,2.60
2018-12-29T08:30:35.992Z,2.60
2018-12-29T08:33:02.731Z,2.60
2018-12-29T08:35:29.181Z,2.60
2018-12-29T08:37:56.116Z,2.60
2018-12-29T08:40:22.593Z,2.60
2018-12-29T08:42:49.268Z,2.60
2018-12-29T08:45:15.747Z,2.60
2018-12-29T08:47:42.199Z,2.60
2018-12-29T08:50:12.944Z,2.60
2018-12-29T08:52:37.285Z,2.60
2018-12-29T08:55:04.045Z,2.60
2018-12-29T08:57:31.068Z,2.70
2018-12-29T08:59:57.830Z,2.70
2018-12-29T09:02:24.760Z,2.70
2018-12-29T09:04:51.488Z,2.70
2018-12-29T09:07:17.931Z,2.80
2018-12-29T09:09:44.899Z,2.80
2018-12-29T09:12:11.833Z,2.80
2018-12-29T09:14:38.324Z,2.80
2018-12-29T09:17:11.851Z,2.80
2018-12-29T09:19:33.607Z,2.90
2018-12-29T09:22:00.307Z,2.90
2018-12-29T09:24:26.989Z,2.90
2018-12-29T09:26:53.668Z,3.00
2018-12-29T09:29:20.645Z,3.10
2018-12-29T09:31:47.348Z,3.10
2018-12-29T09:34:14.309Z,3.20
2018-12-29T09:36:40.759Z,3.10
2018-12-29T09:39:07.976Z,3.20
2018-12-29T09:41:34.679Z,3.30
2018-12-29T09:44:02.128Z,3.40
2018-12-29T09:46:28.619Z,3.60
2018-12-29T09:48:55.324Z,4.00
2018-12-29T09:51:22.031Z,4.00
2018-12-29T09:53:48.713Z,3.80
2018-12-29T09:56:15.548Z,3.80
2018-12-29T09:58:42.492Z,3.70
2018-12-29T10:01:09.208Z,3.80
2018-12-29T10:03:36.369Z,3.90
2018-12-29T10:06:03.096Z,3.80
2018-12-29T10:08:29.776Z,3.80
2018-12-29T10:10:56.509Z,3.80
2018-12-29T10:13:23.437Z,3.80
2018-12-29T10:15:50.169Z,3.70
2018-12-29T10:18:16.618Z,3.70
2018-12-29T10:20:43.348Z,3.70
2018-12-29T10:23:10.060Z,3.70
2018-12-29T10:25:36.804Z,3.80
2018-12-29T10:28:03.252Z,3.80
2018-12-29T10:30:29.960Z,3.90
2018-12-29T10:32:56.411Z,3.90
2018-12-29T10:35:22.991Z,3.90
2018-12-29T10:37:49.448Z,3.80
2018-12-29T10:40:16.420Z,3.70
2018-12-29T10:42:42.876Z,3.70
2018-12-29T10:45:09.584Z,3.70
2018-12-29T10:47:36.289Z,3.60
2018-12-29T10:50:02.976Z,3.60
2018-12-29T10:52:29.527Z,3.60
2018-12-29T10:54:56.532Z,3.60
2018-12-29T10:57:23.263Z,3.60
2018-12-29T10:59:49.976Z,3.70
2018-12-29T11:02:16.456Z,3.70
2018-12-29T11:04:43.155Z,3.70
2018-12-29T11:07:10.100Z,3.70
2018-12-29T11:09:36.772Z,3.70
2018-12-29T11:12:03.507Z,3.80
2018-12-29T11:14:30.179Z,3.80
2018-12-29T11:16:57.428Z,3.80
2018-12-29T11:19:24.385Z,3.80
2018-12-29T11:21:50.964Z,3.80
2018-12-29T11:24:17.899Z,3.80
2018-12-29T11:26:44.848Z,3.80
2018-12-29T11:29:11.777Z,3.80
2018-12-29T11:31:38.737Z,3.90
2018-12-29T11:34:05.437Z,3.90
2018-12-29T11:36:32.168Z,3.90
2018-12-29T11:38:58.616Z,3.90
2018-12-29T11:41:25.582Z,3.90
2018-12-29T11:43:52.036Z,3.90
2018-12-29T11:46:18.511Z,3.90
2018-12-29T11:48:44.965Z,3.90
2018-12-29T11:51:12.020Z,3.90
2018-12-29T11:53:38.811Z,3.80
2018-12-29T11:56:05.777Z,3.80
2018-12-29T11:58:32.332Z,3.80
2018-12-29T12:00:59.069Z,3.90
2018-12-29T12:03:25.622Z,3.80
2018-12-29T12:05:52.528Z,3.80
2018-12-29T12:08:19.105Z,3.80
2018-12-29T12:10:45.559Z,3.80
2018-12-29T12:13:12.148Z,3.80
2018-12-29T12:15:38.688Z,3.80
2018-12-29T12:18:05.172Z,3.80
2018-12-29T12:20:32.196Z,3.90
2018-12-29T12:22:58.908Z,3.90
2018-12-29T12:25:25.771Z,3.90
2018-12-29T12:27:52.961Z,3.80
2018-12-29T12:30:19.531Z,3.80
2018-12-29T12:32:46.340Z,3.70
2018-12-29T12:35:13.372Z,3.70
2018-12-29T12:37:40.176Z,3.70
2018-12-29T12:40:06.983Z,3.70
2018-12-29T12:42:33.787Z,3.70
2018-12-29T12:45:00.823Z,3.70
2018-12-29T12:47:27.628Z,3.80
2018-12-29T12:49:54.420Z,3.80
2018-12-29T12:52:21.680Z,3.80
2018-12-29T12:54:48.220Z,3.80
2018-12-29T12:57:15.103Z,3.80
2018-12-29T12:59:42.120Z,3.80
2018-12-29T13:02:08.924Z,3.70
2018-12-29T13:04:35.772Z,3.70
2018-12-29T13:07:02.351Z,3.70
2018-12-29T13:09:29.358Z,3.60
2018-12-29T13:11:56.167Z,3.60
2018-12-29T13:14:22.992Z,3.60
2018-12-29T13:16:49.671Z,3.60
2018-12-29T13:19:16.713Z,3.60
2018-12-29T13:21:43.254Z,3.60
2018-12-29T13:24:10.061Z,3.60
2018-12-29T13:26:36.769Z,3.50
2018-12-29T13:29:03.344Z,3.50
2018-12-29T13:31:30.108Z,3.50
2018-12-29T13:33:56.888Z,3.50
2018-12-29T13:36:23.918Z,3.50
2018-12-29T13:38:50.624Z,3.50
2018-12-29T13:41:17.878Z,3.50
2018-12-29T13:43:44.457Z,3.50
2018-12-29T13:46:11.152Z,3.50
2018-12-29T13:48:37.979Z,3.50
2018-12-29T13:51:04.926Z,3.50
2018-12-29T13:53:31.748Z,3.50
2018-12-29T13:55:58.535Z,3.50
2018-12-29T13:58:25.368Z,3.40
2018-12-29T14:00:52.857Z,3.40
2018-12-29T14:03:19.450Z,3.30
2018-12-29T14:05:45.999Z,3.30
2018-12-29T14:08:12.749Z,3.30
2018-12-29T14:10:39.552Z,3.30
2018-12-29T14:13:06.828Z,3.30
2018-12-29T14:15:33.736Z,3.30
2018-12-29T14:18:00.572Z,3.30
2018-12-29T14:20:27.159Z,3.30
2018-12-29T14:22:53.993Z,3.30
2018-12-29T14:25:21.035Z,3.20
2018-12-29T14:27:47.619Z,3.20
2018-12-29T14:30:14.392Z,3.20
2018-12-29T14:32:41.199Z,3.20
2018-12-29T14:35:08.132Z,3.20
2018-12-29T14:37:34.923Z,3.10
2018-12-29T14:40:01.736Z,3.10
2018-12-29T14:42:28.816Z,3.00
2018-12-29T14:44:55.772Z,3.00
2018-12-29T14:47:22.560Z,3.00
2018-12-29T14:49:49.272Z,3.00
2018-12-29T14:52:16.540Z,3.00
2018-12-29T14:54:43.816Z,3.00
2018-12-29T14:57:10.615Z,2.90
2018-12-29T14:59:37.129Z,2.90
2018-12-29T15:02:03.692Z,2.90
2018-12-29T15:04:30.512Z,2.90
2018-12-29T15:06:56.968Z,2.90
2018-12-29T15:09:23.780Z,2.90
2018-12-29T15:11:50.332Z,2.80
2018-12-29T15:14:17.396Z,2.80
2018-12-29T15:16:44.247Z,2.80
2018-12-29T15:19:11.461Z,2.70
2018-12-29T15:21:37.987Z,2.70
2018-12-29T15:24:04.817Z,2.70
2018-12-29T15:26:31.625Z,2.70
2018-12-29T15:28:58.435Z,2.70
2018-12-29T15:31:25.315Z,2.70
2018-12-29T15:33:52.141Z,2.70
2018-12-29T15:36:18.932Z,2.70
2018-12-29T15:38:45.678Z,2.60
2018-12-29T15:41:12.715Z,2.70
2018-12-29T15:43:39.525Z,2.60
2018-12-29T15:46:06.084Z,2.60
2018-12-29T15:48:33.148Z,2.60
2018-12-29T15:50:59.924Z,2.60
2018-12-29T15:53:26.916Z,2.60
2018-12-29T15:55:53.710Z,2.60
2018-12-29T15:58:20.744Z,2.50
2018-12-29T16:00:47.575Z,2.60
2018-12-29T16:03:14.581Z,2.50
2018-12-29T16:05:41.630Z,2.60
2018-12-29T16:08:08.183Z,2.50
2018-12-29T16:10:34.661Z,2.50
2018-12-29T16:13:01.465Z,2.50
2018-12-29T16:15:28.298Z,2.60
2018-12-29T16:17:55.091Z,2.50
2018-12-29T16:20:21.877Z,2.50
2018-12-29T16:22:49.104Z,2.60
2018-12-29T16:25:15.937Z,2.60
2018-12-29T16:27:42.493Z,2.50
2018-12-29T16:30:09.366Z,2.50
2018-12-29T16:32:36.160Z,2.50
2018-12-29T16:35:02.747Z,2.50
2018-12-29T16:37:29.451Z,2.50
2018-12-29T16:39:56.336Z,2.60
2018-12-29T16:42:23.444Z,2.60
2018-12-29T16:44:50.252Z,2.60
2018-12-29T16:47:17.040Z,2.70
2018-12-29T16:49:44.000Z,2.70
2018-12-29T16:52:11.853Z,2.70
2018-12-29T16:54:38.656Z,2.70
2018-12-29T16:57:05.664Z,2.70
2018-12-29T16:59:32.549Z,2.70
2018-12-29T17:01:59.327Z,2.70
2018-12-29T17:04:26.166Z,2.70
2018-12-29T17:06:52.947Z,2.60
2018-12-29T17:09:20.192Z,2.60
2018-12-29T17:11:52.231Z,2.60
2018-12-29T17:14:16.048Z,2.60
2018-12-29T17:16:43.081Z,2.60
2018-12-29T17:19:14.670Z,2.60
2018-12-29T17:21:38.748Z,2.60
2018-12-29T17:24:05.757Z,2.60
2018-12-29T17:26:32.593Z,2.60
2018-12-29T17:28:59.388Z,2.60
2018-12-29T17:31:25.973Z,2.60
2018-12-29T17:33:52.745Z,2.60
2018-12-29T17:36:19.675Z,2.70
2018-12-29T17:38:46.223Z,2.70
2018-12-29T17:41:13.023Z,2.70
2018-12-29T17:43:40.045Z,2.70
2018-12-29T17:46:06.868Z,2.80
2018-12-29T17:48:33.680Z,2.80
2018-12-29T17:51:00.631Z,2.80
2018-12-29T17:53:27.715Z,2.80
2018-12-29T17:55:54.520Z,2.80
2018-12-29T17:58:21.316Z,2.80
2018-12-29T18:00:47.896Z,2.60
2018-12-29T18:03:14.701Z,2.40
2018-12-29T18:05:41.529Z,2.50
2018-12-29T18:08:08.080Z,2.50
2018-12-29T18:10:34.916Z,2.50
2018-12-29T18:13:01.725Z,2.50
2018-12-29T18:15:28.775Z,2.60
2018-12-29T18:17:55.598Z,2.60
2018-12-29T18:20:22.423Z,2.60
2018-12-29T18:22:49.452Z,2.60
2018-12-29T18:25:16.250Z,2.60
2018-12-29T18:27:43.024Z,2.60
2018-12-29T18:30:09.570Z,2.60
2018-12-29T18:32:36.401Z,2.50
2018-12-29T18:35:02.953Z,2.60
2018-12-29T18:37:29.811Z,2.50
2018-12-29T18:39:56.813Z,2.50
2018-12-29T18:42:23.628Z,2.50
2018-12-29T18:44:50.963Z,2.50
2018-12-29T18:47:17.779Z,2.40
2018-12-29T18:49:44.562Z,2.40
2018-12-29T18:52:11.620Z,2.30
2018-12-29T18:54:38.172Z,2.30
2018-12-29T18:57:05.004Z,2.30
2018-12-29T18:59:31.784Z,2.30
2018-12-29T19:01:58.618Z,2.30
2018-12-29T19:04:25.160Z,2.20
2018-12-29T19:06:51.877Z,2.20
2018-12-29T19:09:18.657Z,2.20
2018-12-29T19:11:45.517Z,2.20
2018-12-29T19:14:12.606Z,2.20
2018-12-29T19:16:39.456Z,2.20
2018-12-29T19:19:06.008Z,2.20
2018-12-29T19:21:32.599Z,2.10
2018-12-29T19:23:59.599Z,2.10
2018-12-29T19:26:26.720Z,2.10
2018-12-29T19:28:53.720Z,2.10
2018-12-29T19:31:20.310Z,2.20
2018-12-29T19:33:46.860Z,2.10
2018-12-29T19:36:13.599Z,2.10
2018-12-29T19:38:40.144Z,2.10
2018-12-29T19:41:07.178Z,2.10
2018-12-29T19:43:34.028Z,2.10
2018-12-29T19:46:00.879Z,2.10
2018-12-29T19:48:28.011Z,2.20
2018-12-29T19:50:55.598Z,2.10
2018-12-29T19:53:22.732Z,2.10
2018-12-29T19:55:49.284Z,2.20
2018-12-29T19:58:16.092Z,2.20
2018-12-29T20:00:43.525Z,2.20
2018-12-29T20:03:11.311Z,2.20
2018-12-29T20:05:38.208Z,2.20
2018-12-29T20:08:05.268Z,2.20
2018-12-29T20:10:32.048Z,2.20
2018-12-29T20:12:59.008Z,2.20
2018-12-29T20:15:25.730Z,2.20
2018-12-29T20:17:52.328Z,2.20
2018-12-29T20:20:19.088Z,2.20
2018-12-29T20:22:46.079Z,2.20
2018-12-29T20:25:12.623Z,2.20
2018-12-29T20:27:39.509Z,2.20
2018-12-29T20:30:06.833Z,2.20
2018-12-29T20:32:33.312Z,2.20
2018-12-29T20:35:00.166Z,2.20
2018-12-29T20:37:26.916Z,2.20
2018-12-29T20:39:53.715Z,2.20
2018-12-29T20:42:20.197Z,2.20
2018-12-29T20:44:46.980Z,2.20
2018-12-29T20:47:14.284Z,2.20
2018-12-29T20:49:41.311Z,2.20
2018-12-29T20:52:08.369Z,2.20
2018-12-29T20:54:35.179Z,2.20
2018-12-29T20:57:01.736Z,2.20
2018-12-29T20:59:28.768Z,2.20
2018-12-29T21:01:55.819Z,2.20
2018-12-29T21:04:22.557Z,2.20
2018-12-29T21:06:49.112Z,2.20
2018-12-29T21:09:15.944Z,2.20
2018-12-29T21:11:42.500Z,2.20
2018-12-29T21:14:09.355Z,2.20
2018-12-29T21:16:35.913Z,2.20
2018-12-29T21:19:02.494Z,2.20
2018-12-29T21:21:29.040Z,2.20
2018-12-29T21:23:55.520Z,2.20
2018-12-29T21:26:22.324Z,2.20
2018-12-29T21:28:49.152Z,2.30
2018-12-29T21:31:16.164Z,2.30
2018-12-29T21:33:43.021Z,2.30
2018-12-29T21:36:09.550Z,2.30
2018-12-29T21:38:36.612Z,2.30
2018-12-29T21:41:03.160Z,2.30
2018-12-29T21:43:29.744Z,2.30
2018-12-29T21:45:56.291Z,2.30
2018-12-29T21:48:23.525Z,2.30
2018-12-29T21:50:50.319Z,2.30
2018-12-29T21:53:17.149Z,2.40
2018-12-29T21:55:43.936Z,2.40
2018-12-29T21:58:10.791Z,2.40
2018-12-29T22:00:37.857Z,2.40
2018-12-29T22:03:04.997Z,2.40
2018-12-29T22:05:31.554Z,2.40
2018-12-29T22:07:58.134Z,2.40
2018-12-29T22:10:24.682Z,2.50
2018-12-29T22:12:51.748Z,2.50
2018-12-29T22:15:18.579Z,2.50
2018-12-29T22:17:45.512Z,2.50
2018-12-29T22:20:12.348Z,2.50
2018-12-29T22:22:39.153Z,2.50
2018-12-29T22:25:05.735Z,2.60
2018-12-29T22:27:32.764Z,2.60
2018-12-29T22:29:59.604Z,2.60
2018-12-29T22:32:26.631Z,2.60
2018-12-29T22:34:53.987Z,2.60
2018-12-29T22:37:20.747Z,2.60
2018-12-29T22:39:47.797Z,2.70
2018-12-29T22:42:14.575Z,2.70
2018-12-29T22:44:41.288Z,2.70
2018-12-29T22:47:07.841Z,2.70
2018-12-29T22:49:34.655Z,2.70
2018-12-29T22:52:01.452Z,2.70
2018-12-29T22:54:28.283Z,2.70
2018-12-29T22:56:55.080Z,2.80
2018-12-29T22:59:21.920Z,2.80
2018-12-29T23:01:48.469Z,2.80
2018-12-29T23:04:15.043Z,2.80
2018-12-29T23:06:41.840Z,2.80
2018-12-29T23:09:08.971Z,2.90
2018-12-29T23:11:35.524Z,2.90
2018-12-29T23:14:02.103Z,2.90
2018-12-29T23:16:28.652Z,2.90
2018-12-29T23:18:55.783Z,2.90
2018-12-29T23:21:22.816Z,2.90
2018-12-29T23:23:49.515Z,3.00
2018-12-29T23:26:16.095Z,3.00
2018-12-29T23:28:42.649Z,3.00
2018-12-29T23:31:09.461Z,3.00
2018-12-29T23:33:36.009Z,3.00
2018-12-29T23:36:02.839Z,3.10
2018-12-29T23:38:29.420Z,3.10
2018-12-29T23:40:56.007Z,3.20
2018-12-29T23:43:22.781Z,3.20
2018-12-29T23:45:49.615Z,3.20
2018-12-29T23:48:16.163Z,3.30
2018-12-29T23:50:43.065Z,3.30
2018-12-29T23:53:10.049Z,3.40
2018-12-29T23:55:36.828Z,3.40
2018-12-29T23:58:03.612Z,3.40
